Time;durP1;ratioP1;P1;durP2;ratioP2;P2;SDS_P1;SDS_P2;PMS_P1;PMS_P2;Temp;Humidity;BMP_temperature;BMP_pressure;BME280_temperature;BME280_humidity;BME280_pressure;Samples;Min_cycle;Max_cycle;Signal;HPM_P1;HPM_P2
2023/12/26 00:01:19;;;;;;;4.20;3.70;;;9.70;99.90;;;8.96;100.00;99519.72;5032850;28;20314;-71
2023/12/26 00:03:48;;;;;;;6.33;4.20;;;9.70;99.90;;;8.97;100.00;99520.56;5033381;28;20641;-71
2023/12/26 00:06:21;;;;;;;3.53;3.23;;;9.70;99.90;;;8.97;100.00;99509.88;5036461;28;20252;-71
2023/12/26 00:08:49;;;;;;;3.57;3.27;;;9.70;99.90;;;8.98;100.00;99500.84;5036439;28;20288;-71
2023/12/26 00:11:18;;;;;;;4.50;3.73;;;9.70;99.90;;;8.96;100.00;99498.34;5036388;28;20198;-71
2023/12/26 00:13:46;;;;;;;3.60;3.30;;;9.70;99.90;;;8.98;100.00;99493.66;5036335;28;20230;-71
2023/12/26 00:16:14;;;;;;;4.00;3.00;;;9.70;99.90;;;8.99;100.00;99481.16;5036016;28;20245;-71
2023/12/26 00:18:44;;;;;;;2.73;2.00;;;9.70;99.90;;;9.01;100.00;99479.13;5036188;28;20227;-71
2023/12/26 00:21:13;;;;;;;1.90;1.70;;;9.70;99.90;;;9.05;100.00;99475.91;5036526;28;20274;-71
2023/12/26 00:23:41;;;;;;;1.37;1.20;;;9.80;99.90;;;9.11;100.00;99461.81;5036170;28;20253;-71
2023/12/26 00:26:09;;;;;;;2.10;1.13;;;9.90;99.90;;;9.16;100.00;99466.63;5036170;28;20207;-71
2023/12/26 00:28:37;;;;;;;1.00;0.90;;;9.90;99.90;;;9.21;100.00;99458.91;5036020;28;20258;-71
2023/12/26 00:31:06;;;;;;;1.50;0.77;;;10.00;99.90;;;9.28;100.00;99459.81;5035723;28;20213;-71
2023/12/26 00:33:34;;;;;;;0.57;0.57;;;10.00;99.90;;;9.30;100.00;99446.28;5036009;28;20217;-71
2023/12/26 00:36:04;;;;;;;0.60;0.60;;;10.10;99.90;;;9.35;100.00;99450.06;5035622;28;20708;-71
2023/12/26 00:38:33;;;;;;;0.87;0.83;;;10.20;99.90;;;9.38;100.00;99444.38;5035530;28;20237;-71
2023/12/26 00:41:01;;;;;;;0.53;0.53;;;10.10;99.90;;;9.43;100.00;99433.97;5035930;28;20234;-71
2023/12/26 00:43:29;;;;;;;0.60;0.60;;;10.20;99.90;;;9.45;100.00;99439.94;5035920;28;20294;-71
2023/12/26 00:45:57;;;;;;;0.63;0.60;;;10.20;99.90;;;9.55;100.00;99437.84;5036357;28;20211;-71
2023/12/26 00:48:26;;;;;;;0.40;0.40;;;10.30;99.90;;;9.54;100.00;99433.50;5035258;28;20777;-71
2023/12/26 00:50:54;;;;;;;1.80;0.60;;;10.30;99.90;;;9.55;100.00;99432.50;5035304;28;20686;-71
2023/12/26 00:53:24;;;;;;;0.40;0.40;;;10.30;99.90;;;9.59;100.00;99443.59;5035664;28;20207;-71
2023/12/26 00:55:53;;;;;;;0.50;0.50;;;10.40;99.90;;;9.59;100.00;99440.94;5035672;28;20215;-71
2023/12/26 00:58:21;;;;;;;0.93;0.40;;;10.30;99.90;;;9.59;100.00;99436.41;5035217;28;20763;-71
2023/12/26 01:00:50;;;;;;;0.30;0.30;;;10.40;99.90;;;9.61;100.00;99439.75;5035819;28;20195;-75
2023/12/26 01:03:21;;;;;;;0.30;0.30;;;10.40;99.90;;;9.64;100.00;99450.06;5035055;28;20708;-75
2023/12/26 01:05:51;;;;;;;1.17;0.50;;;10.40;99.90;;;9.64;100.00;99450.06;5035508;28;20195;-73
2023/12/26 01:08:19;;;;;;;0.40;0.40;;;10.40;99.90;;;9.67;100.00;99449.69;5035318;28;20228;-73
2023/12/26 01:10:51;;;;;;;0.60;0.60;;;10.40;99.90;;;9.64;100.00;99444.72;5035257;28;20257;-73
2023/12/26 01:13:19;;;;;;;0.50;0.50;;;10.40;99.90;;;9.72;100.00;99454.50;5035254;28;20210;-74
2023/12/26 01:15:47;;;;;;;0.60;0.40;;;10.50;99.90;;;9.68;100.00;99446.03;5034646;28;20203;-75
2023/12/26 01:18:16;;;;;;;0.43;0.43;;;10.50;99.90;;;9.71;100.00;99455.50;5034844;28;20687;-73
2023/12/26 01:20:44;;;;;;;0.97;0.70;;;10.50;99.90;;;9.69;100.00;99453.00;5035222;28;20210;-75
2023/12/26 01:23:13;;;;;;;0.67;0.53;;;10.40;99.90;;;9.72;100.00;99453.66;5034643;28;20277;-74
2023/12/26 01:25:41;;;;;;;0.60;0.60;;;10.50;99.90;;;9.73;100.00;99463.31;5035032;28;20230;-74
2023/12/26 01:28:13;;;;;;;0.40;0.40;;;10.50;99.90;;;9.69;100.00;99463.69;5034895;28;20309;-74
2023/12/26 01:30:41;;;;;;;1.07;0.63;;;10.50;99.90;;;9.70;100.00;99480.56;5035070;28;20230;-74
2023/12/26 01:33:10;;;;;;;0.60;0.47;;;10.50;99.90;;;9.69;100.00;99493.09;5034573;28;20202;-74
2023/12/26 01:35:39;;;;;;;0.50;0.50;;;10.50;99.90;;;9.64;100.00;99481.31;5034531;28;20653;-75
2023/12/26 01:38:07;;;;;;;0.50;0.50;;;10.40;99.90;;;9.61;100.00;99487.84;5034719;28;20235;-74
2023/12/26 01:40:40;;;;;;;5.80;1.03;;;10.40;99.90;;;9.54;100.00;99499.47;5034396;28;20583;-74
2023/12/26 01:43:09;;;;;;;0.93;0.63;;;10.30;99.90;;;9.44;100.00;99491.72;5034285;28;20257;-73
2023/12/26 01:45:38;;;;;;;1.00;0.70;;;10.20;99.90;;;9.37;100.00;99498.81;5034609;28;20302;-73
2023/12/26 01:48:09;;;;;;;0.90;0.50;;;10.20;99.90;;;9.38;100.00;99489.78;5034512;28;20345;-73
2023/12/26 01:50:38;;;;;;;0.63;0.63;;;10.10;99.90;;;9.31;100.00;99506.72;5034225;28;20219;-73
2023/12/26 01:53:07;;;;;;;0.87;0.50;;;10.00;99.90;;;9.29;100.00;99506.88;5034476;28;20199;-73
2023/12/26 01:55:37;;;;;;;0.80;0.50;;;10.10;99.90;;;9.23;100.00;99499.59;5034446;28;20293;-73
2023/12/26 01:58:07;;;;;;;0.70;0.43;;;10.00;99.90;;;9.16;100.00;99494.16;5034006;28;20323;-73
2023/12/26 02:00:37;;;;;;;0.40;0.40;;;10.00;99.90;;;9.11;100.00;99496.53;5035147;28;20293;-73
2023/12/26 02:03:05;;;;;;;0.73;0.40;;;9.90;99.90;;;9.15;100.00;99505.00;5033891;28;20269;-72
2023/12/26 02:05:34;;;;;;;0.80;0.50;;;9.90;99.90;;;9.12;100.00;99503.53;5033961;28;20639;-72
2023/12/26 02:08:02;;;;;;;0.30;0.30;;;9.90;99.90;;;9.10;100.00;99499.41;5033948;28;20648;-72
2023/12/26 02:10:44;;;;;;;0.40;0.33;;;9.90;99.90;;;9.07;100.00;99499.78;5034281;28;20202;-74
2023/12/26 02:13:13;;;;;;;0.30;0.30;;;9.80;99.90;;;9.05;100.00;99489.25;5033926;28;20727;-74
2023/12/26 02:15:43;;;;;;;0.40;0.40;;;9.80;99.90;;;9.04;100.00;99494.78;5034102;28;20298;-74
2023/12/26 02:18:12;;;;;;;1.37;0.50;;;9.80;99.90;;;9.04;100.00;99490.25;5034243;28;20313;-72
2023/12/26 02:20:41;;;;;;;0.33;0.33;;;9.80;99.90;;;9.00;100.00;99501.50;5033987;28;20206;-72
2023/12/26 02:23:09;;;;;;;0.50;0.43;;;9.70;99.90;;;9.00;100.00;99499.66;5033592;28;20257;-74
2023/12/26 02:25:39;;;;;;;1.50;0.30;;;9.70;99.90;;;8.98;100.00;99495.50;5033601;28;20673;-74
2023/12/26 02:28:09;;;;;;;0.97;0.50;;;9.70;99.90;;;8.96;100.00;99492.19;5032958;28;20309;-73
2023/12/26 02:30:39;;;;;;;0.70;0.60;;;9.70;99.90;;;8.94;100.00;99492.34;5033524;28;20730;-72
2023/12/26 02:33:07;;;;;;;1.60;0.50;;;9.70;99.90;;;8.94;100.00;99488.84;5033804;28;20212;-72
2023/12/26 02:35:36;;;;;;;2.17;0.77;;;9.70;99.90;;;8.91;100.00;99505.22;5033783;28;20216;-72
2023/12/26 02:38:05;;;;;;;1.70;0.77;;;9.60;99.90;;;8.90;100.00;99490.25;5033688;28;20222;-72
2023/12/26 02:40:33;;;;;;;1.67;0.67;;;9.60;99.90;;;8.88;100.00;99489.56;5033364;28;20622;-72
2023/12/26 02:43:03;;;;;;;1.17;0.60;;;9.60;99.90;;;8.87;100.00;99493.28;5033591;28;20317;-73
2023/12/26 02:45:31;;;;;;;1.83;0.70;;;9.60;99.90;;;8.88;100.00;99500.25;5033673;28;20313;-73
2023/12/26 02:47:59;;;;;;;1.80;0.60;;;9.60;99.90;;;8.87;100.00;99503.94;5033502;28;20254;-72
2023/12/26 02:50:28;;;;;;;0.60;0.60;;;9.60;99.90;;;8.86;100.00;99495.09;5033292;28;20222;-74
2023/12/26 02:52:56;;;;;;;0.80;0.60;;;9.60;99.90;;;8.85;100.00;99501.44;5033523;28;20211;-73
2023/12/26 02:55:25;;;;;;;0.70;0.50;;;9.60;99.90;;;8.86;100.00;99491.59;5033226;28;20672;-73
2023/12/26 02:57:53;;;;;;;0.53;0.40;;;9.60;99.90;;;8.86;100.00;99488.94;5033393;28;20229;-72
2023/12/26 03:00:23;;;;;;;0.50;0.50;;;9.60;99.90;;;8.85;100.00;99480.09;5033403;28;20217;-72
2023/12/26 03:02:51;;;;;;;3.07;0.67;;;9.60;99.90;;;8.83;100.00;99492.81;5033395;28;20226;-72
2023/12/26 03:05:19;;;;;;;1.50;0.50;;;9.60;99.90;;;8.87;100.00;99494.06;5033348;28;20213;-72
2023/12/26 03:07:48;;;;;;;0.50;0.50;;;9.60;99.90;;;8.85;100.00;99489.94;5033303;28;20258;-72
2023/12/26 03:10:16;;;;;;;0.80;0.60;;;9.60;99.90;;;8.84;100.00;99489.09;5033347;28;20207;-74
2023/12/26 03:12:44;;;;;;;0.57;0.47;;;9.60;99.90;;;8.85;100.00;99489.94;5033279;28;20729;-74
2023/12/26 03:15:13;;;;;;;0.43;0.43;;;9.60;99.90;;;8.84;100.00;99490.94;5033322;28;20631;-74
2023/12/26 03:17:43;;;;;;;0.97;0.40;;;9.60;99.90;;;8.85;100.00;99485.44;5032908;28;20713;-73
2023/12/26 03:20:12;;;;;;;0.90;0.50;;;9.60;99.90;;;8.87;100.00;99477.25;5033272;28;20210;-72
2023/12/26 03:22:41;;;;;;;0.70;0.70;;;9.60;99.90;;;8.92;100.00;99490.88;5033189;28;20288;-72
2023/12/26 03:25:09;;;;;;;0.50;0.40;;;9.60;99.90;;;8.96;100.00;99482.34;5033245;28;20361;-72
2023/12/26 03:27:38;;;;;;;0.50;0.50;;;9.70;99.90;;;9.03;100.00;99483.28;5033155;28;20233;-72
2023/12/26 03:30:08;;;;;;;0.93;0.63;;;9.80;99.90;;;9.09;100.00;99487.91;5033190;28;20288;-72
2023/12/26 03:32:36;;;;;;;0.50;0.50;;;9.90;99.90;;;9.12;100.00;99486.69;5033161;28;20294;-73
2023/12/26 03:35:07;;;;;;;0.40;0.40;;;9.90;99.90;;;9.21;100.00;99469.59;5033134;28;20298;-73
2023/12/26 03:37:35;;;;;;;0.40;0.40;;;10.00;99.90;;;9.27;100.00;99470.69;5033850;28;20226;-72
2023/12/26 03:40:04;;;;;;;1.30;0.57;;;10.00;99.90;;;9.30;100.00;99484.53;5035940;28;20309;-72
2023/12/26 03:42:33;;;;;;;0.80;0.60;;;10.10;99.90;;;9.29;100.00;99469.50;5036924;28;20319;-73
2023/12/26 03:45:01;;;;;;;0.50;0.50;;;10.10;99.90;;;9.35;100.00;99479.44;5036901;28;20246;-73
2023/12/26 03:47:30;;;;;;;1.00;0.57;;;10.10;99.90;;;9.36;100.00;99475.75;5036797;28;20230;-72
2023/12/26 03:49:58;;;;;;;0.70;0.60;;;10.10;99.90;;;9.41;100.00;99476.06;5036657;28;20226;-72
2023/12/26 03:52:28;;;;;;;0.40;0.40;;;10.20;99.90;;;9.40;100.00;99481.56;5036764;28;20207;-72
2023/12/26 03:54:58;;;;;;;0.50;0.50;;;10.20;99.90;;;9.40;100.00;99485.09;5036765;28;20293;-73
2023/12/26 03:57:26;;;;;;;0.90;0.80;;;10.20;99.90;;;9.43;100.00;99486.53;5036597;28;20253;-72
2023/12/26 03:59:54;;;;;;;0.53;0.53;;;10.30;99.90;;;9.43;100.00;99483.88;5036617;28;20261;-73
2023/12/26 04:02:22;;;;;;;0.50;0.50;;;10.20;99.90;;;9.44;100.00;99489.06;5036256;28;20681;-73
2023/12/26 04:04:50;;;;;;;0.37;0.37;;;10.20;99.90;;;9.48;100.00;99492.19;5037250;28;20318;-73
2023/12/26 04:07:19;;;;;;;0.50;0.43;;;10.20;99.90;;;9.46;100.00;99497.69;5036385;28;20210;-72
2023/12/26 04:09:48;;;;;;;0.77;0.50;;;10.20;99.90;;;9.48;100.00;99494.84;5036406;28;20583;-72
2023/12/26 04:12:16;;;;;;;0.40;0.40;;;10.20;99.90;;;9.48;100.00;99502.88;5036414;28;20293;-73
2023/12/26 04:14:45;;;;;;;1.03;1.03;;;10.20;99.90;;;9.49;100.00;99513.34;5036101;28;20727;-72
2023/12/26 04:17:13;;;;;;;0.40;0.40;;;10.30;99.90;;;9.50;100.00;99522.22;5036322;28;20206;-72
2023/12/26 04:19:41;;;;;;;1.40;0.60;;;10.20;99.90;;;9.43;100.00;99546.16;5036323;28;20234;-72
2023/12/26 04:22:10;;;;;;;4.10;0.50;;;10.20;99.90;;;9.35;100.00;99553.44;5036166;28;20209;-72
2023/12/26 04:24:38;;;;;;;0.67;0.50;;;10.10;99.90;;;9.24;100.00;99570.72;5036187;28;20745;-72
2023/12/26 04:27:08;;;;;;;1.97;0.57;;;10.00;99.90;;;9.13;100.00;99574.63;5036111;28;20298;-72
2023/12/26 04:29:37;;;;;;;0.67;0.40;;;9.90;99.90;;;9.09;100.00;99583.19;5036143;28;20225;-72
2023/12/26 04:32:06;;;;;;;0.53;0.53;;;9.90;99.90;;;9.00;100.00;99589.59;5035691;28;20585;-72
2023/12/26 04:34:34;;;;;;;0.97;0.50;;;9.80;99.90;;;8.92;100.00;99584.31;5036174;28;20249;-72
2023/12/26 04:37:02;;;;;;;1.90;0.50;;;9.70;99.90;;;8.86;100.00;99577.00;5036313;28;20203;-72
2023/12/26 04:39:31;;;;;;;1.23;0.67;;;9.60;99.90;;;8.87;100.00;99589.34;5036011;28;20290;-72
2023/12/26 04:41:59;;;;;;;1.70;0.67;;;9.60;99.90;;;8.80;100.00;99591.88;5035994;28;20242;-72
2023/12/26 04:44:29;;;;;;;1.20;0.50;;;9.60;99.90;;;8.76;100.00;99603.94;5035747;28;20230;-72
2023/12/26 04:46:57;;;;;;;1.60;0.67;;;9.50;99.90;;;8.73;100.00;99616.81;5035787;28;20277;-72
2023/12/26 04:49:26;;;;;;;0.60;0.57;;;9.50;99.90;;;8.69;100.00;99607.47;5035508;28;20292;-72
2023/12/26 04:51:54;;;;;;;1.43;0.80;;;9.40;99.90;;;8.72;100.00;99596.44;5034776;28;20187;-72
2023/12/26 04:54:22;;;;;;;1.57;0.90;;;9.40;99.90;;;8.72;100.00;99617.81;5035627;28;20203;-74
2023/12/26 04:56:50;;;;;;;2.40;0.80;;;9.50;99.90;;;8.69;100.00;99615.47;5035623;28;20290;-73
2023/12/26 04:59:19;;;;;;;3.90;1.00;;;9.40;99.90;;;8.62;100.00;99610.84;5035214;28;20598;-72
2023/12/26 05:01:49;;;;;;;2.33;0.80;;;9.40;99.90;;;8.63;100.00;99631.16;5035695;28;20209;-72
2023/12/26 05:04:18;;;;;;;0.87;0.70;;;9.40;99.90;;;8.58;100.00;99622.88;5035397;28;20227;-72
2023/12/26 05:06:46;;;;;;;3.93;0.90;;;9.30;99.90;;;8.53;100.00;99627.88;5035431;28;20297;-72
2023/12/26 05:09:16;;;;;;;1.57;1.10;;;9.30;99.90;;;8.58;100.00;99630.88;5035295;28;20231;-70
2023/12/26 05:11:45;;;;;;;2.50;1.00;;;9.30;99.90;;;8.55;100.00;99633.06;5035368;28;20191;-70
2023/12/26 05:14:13;;;;;;;2.93;1.13;;;9.30;99.90;;;8.53;100.00;99635.91;5035383;28;20298;-70
2023/12/26 05:16:42;;;;;;;2.57;0.97;;;9.30;99.90;;;8.52;100.00;99649.41;5035171;28;20641;-71
2023/12/26 05:19:14;;;;;;;2.80;1.10;;;9.30;99.90;;;8.53;100.00;99651.06;5035270;28;20258;-71
2023/12/26 05:21:43;;;;;;;3.13;1.27;;;9.30;99.90;;;8.48;100.00;99664.94;5035019;28;20630;-71
2023/12/26 05:24:11;;;;;;;3.13;1.20;;;9.20;99.90;;;8.52;100.00;99660.94;5034953;28;20248;-71
2023/12/26 05:26:40;;;;;;;5.93;1.60;;;9.20;99.90;;;8.50;100.00;99656.75;5035042;28;20258;-71
2023/12/26 05:29:09;;;;;;;3.13;1.33;;;9.30;99.90;;;8.50;100.00;99662.09;5034915;28;20222;-71
2023/12/26 05:31:38;;;;;;;2.17;1.40;;;9.30;99.90;;;8.48;100.00;99670.28;5034955;28;20211;-71
2023/12/26 05:34:08;;;;;;;4.27;1.27;;;9.20;99.90;;;8.46;100.00;99666.94;5035155;28;20211;-71
2023/12/26 05:36:38;;;;;;;2.63;1.33;;;9.20;99.90;;;8.47;100.00;99673.94;5035205;28;20740;-71
2023/12/26 05:39:08;;;;;;;3.13;1.37;;;9.20;99.90;;;8.46;100.00;99677.59;5034766;28;20278;-71
2023/12/26 05:41:37;;;;;;;4.17;1.83;;;9.20;99.90;;;8.46;100.00;99677.59;5034822;28;20253;-71
2023/12/26 05:44:05;;;;;;;3.07;1.20;;;9.20;99.90;;;8.46;100.00;99682.94;5034611;28;20285;-71
2023/12/26 05:46:33;;;;;;;5.03;1.43;;;9.20;99.90;;;8.45;100.00;99686.63;5034738;28;20306;-71
2023/12/26 05:49:02;;;;;;;3.13;1.50;;;9.20;99.90;;;8.47;100.00;99694.44;5034472;28;20734;-71
2023/12/26 05:51:30;;;;;;;2.40;1.20;;;9.20;99.90;;;8.46;100.00;99687.47;5034169;28;20215;-71
2023/12/26 05:54:00;;;;;;;4.97;1.50;;;9.20;99.90;;;8.42;100.00;99697.66;5034623;28;20623;-71
2023/12/26 05:56:28;;;;;;;5.00;1.40;;;9.20;99.90;;;8.43;100.00;99709.13;5034511;28;20211;-71
2023/12/26 05:58:56;;;;;;;6.47;2.00;;;9.20;99.90;;;8.40;100.00;99710.31;5034381;28;20418;-71
2023/12/26 06:01:25;;;;;;;3.67;1.23;;;9.20;99.90;;;8.38;100.00;99712.31;5033888;28;20215;-71
2023/12/26 06:03:53;;;;;;;3.57;1.40;;;9.10;99.90;;;8.38;100.00;99720.31;5034257;28;20250;-71
2023/12/26 06:06:21;;;;;;;5.07;1.47;;;9.10;99.90;;;8.40;100.00;99720.97;5034321;28;20211;-74
2023/12/26 06:08:49;;;;;;;6.70;1.80;;;9.10;99.90;;;8.38;100.00;99725.66;5034126;28;20276;-74
2023/12/26 06:11:19;;;;;;;4.53;1.70;;;9.10;99.90;;;8.40;100.00;99728.97;5034315;28;20211;-74
2023/12/26 06:13:47;;;;;;;3.80;1.30;;;9.10;99.90;;;8.38;100.00;99740.81;5034131;28;20211;-74
2023/12/26 06:16:16;;;;;;;6.47;1.50;;;9.10;99.90;;;8.37;100.00;99749.81;5034151;28;20291;-74
2023/12/26 06:18:44;;;;;;;2.70;1.30;;;9.10;99.90;;;8.36;100.00;99751.66;5034048;28;20226;-74
2023/12/26 06:21:13;;;;;;;6.77;1.70;;;9.10;99.90;;;8.36;100.00;99751.66;5033989;28;20206;-74
2023/12/26 06:23:41;;;;;;;4.60;1.67;;;9.10;99.90;;;8.36;100.00;99770.31;5033972;28;20302;-74
2023/12/26 06:26:09;;;;;;;6.40;1.63;;;9.10;99.90;;;8.37;100.00;99768.47;5033874;28;20230;-74
2023/12/26 06:28:39;;;;;;;4.13;1.30;;;9.10;99.90;;;8.36;100.00;99774.81;5033795;28;20234;-74
2023/12/26 06:31:14;;;;;;;3.80;1.70;;;9.10;99.90;;;8.34;100.00;99780.34;5033940;28;20261;-74
2023/12/26 06:33:42;;;;;;;4.90;1.80;;;9.10;99.90;;;8.35;100.00;99771.34;5033594;28;20190;-74
2023/12/26 06:36:11;;;;;;;3.37;1.50;;;9.10;99.90;;;8.38;100.00;99775.50;5033938;28;20210;-74
2023/12/26 06:38:39;;;;;;;5.03;1.40;;;9.10;99.90;;;8.36;100.00;99782.81;5033790;28;20314;-74
2023/12/26 06:41:09;;;;;;;3.33;1.60;;;9.20;99.90;;;8.36;100.00;99772.97;5033431;28;20559;-74
2023/12/26 06:43:39;;;;;;;3.87;1.70;;;9.10;99.90;;;8.37;100.00;99788.00;5033775;28;20215;-75
2023/12/26 06:46:08;;;;;;;4.83;1.30;;;9.10;99.90;;;8.36;100.00;99785.47;5033552;28;20735;-74
2023/12/26 06:48:36;;;;;;;3.60;1.40;;;9.10;99.90;;;8.36;100.00;99783.66;5033519;28;20318;-74
2023/12/26 06:51:05;;;;;;;3.50;1.50;;;9.10;99.90;;;8.34;100.00;99807.00;5033587;28;20215;-74
2023/12/26 06:53:34;;;;;;;5.00;1.93;;;9.10;99.90;;;8.38;100.00;99827.00;5033608;28;20210;-74
2023/12/26 06:56:04;;;;;;;4.27;1.47;;;9.10;99.90;;;8.31;100.00;99810.00;5033593;28;20225;-75
2023/12/26 06:58:32;;;;;;;4.20;1.60;;;9.10;99.90;;;8.29;100.00;99836.00;5033193;28;20277;-74
2023/12/26 07:01:02;;;;;;;3.33;1.50;;;9.00;99.90;;;8.28;100.00;99844.16;5033751;28;20211;-73
2023/12/26 07:03:31;;;;;;;7.07;2.10;;;9.00;99.90;;;8.23;100.00;99836.63;5033494;28;20194;-72
2023/12/26 07:05:59;;;;;;;3.23;1.43;;;9.00;99.90;;;8.27;100.00;99843.31;5033222;28;20754;-73
2023/12/26 07:08:27;;;;;;;2.67;1.40;;;9.00;99.90;;;8.20;100.00;99852.13;5033485;28;20310;-73
2023/12/26 07:10:56;;;;;;;7.43;2.60;;;9.00;99.90;;;8.13;100.00;99851.97;5033422;28;20206;-73
2023/12/26 07:13:24;;;;;;;4.17;1.53;;;8.90;99.90;;;8.15;100.00;99863.28;5033286;28;20573;-72
2023/12/26 07:15:52;;;;;;;3.30;1.60;;;8.90;99.90;;;8.06;100.00;99866.97;5037618;28;20249;-72
2023/12/26 07:18:22;;;;;;;5.33;1.50;;;8.90;99.90;;;8.07;100.00;99879.28;5037411;28;20258;-72
2023/12/26 07:20:50;;;;;;;7.27;1.50;;;8.80;99.90;;;8.08;100.00;99879.13;5037148;28;20207;-72
2023/12/26 07:23:19;;;;;;;2.10;1.30;;;8.90;99.90;;;8.11;100.00;99880.63;5037389;28;20629;-73
2023/12/26 07:25:47;;;;;;;3.43;1.40;;;8.80;99.90;;;8.14;100.00;99885.63;5037299;28;20318;-73
2023/12/26 07:28:17;;;;;;;5.07;1.60;;;8.90;99.90;;;8.12;100.00;99893.78;5037205;28;20280;-71
2023/12/26 07:30:45;;;;;;;3.17;1.50;;;8.80;99.90;;;8.12;100.00;99914.28;5037531;28;20214;-71
2023/12/26 07:33:14;;;;;;;5.17;1.43;;;8.80;99.90;;;8.09;100.00;99909.28;5037145;28;20202;-70
2023/12/26 07:35:45;;;;;;;3.53;1.40;;;8.80;99.90;;;8.07;100.00;99922.78;5037469;28;20249;-71
2023/12/26 07:38:13;;;;;;;3.53;1.40;;;8.80;99.90;;;8.07;100.00;99927.28;5037131;28;20222;-71
2023/12/26 07:40:41;;;;;;;8.00;1.50;;;8.80;99.90;;;7.96;100.00;99930.25;5037180;28;20279;-70
2023/12/26 07:43:10;;;;;;;7.67;1.50;;;8.80;99.90;;;7.91;100.00;99940.59;5036722;28;20748;-70
2023/12/26 07:45:38;;;;;;;6.60;1.80;;;8.70;99.90;;;7.87;100.00;99944.56;5036601;28;20273;-70
2023/12/26 07:48:07;;;;;;;5.60;1.57;;;8.60;99.90;;;7.79;100.00;99955.19;5036826;28;20313;-70
2023/12/26 07:50:35;;;;;;;6.57;1.90;;;8.60;99.90;;;7.78;100.00;99964.16;5036555;28;20215;-71
2023/12/26 07:53:05;;;;;;;5.53;1.60;;;8.60;99.90;;;7.74;100.00;99992.16;5036831;28;20627;-70
2023/12/26 07:55:33;;;;;;;7.20;1.73;;;8.50;99.90;;;7.74;100.00;99984.16;5036718;28;20239;-70
2023/12/26 07:58:02;;;;;;;8.03;1.87;;;8.50;99.90;;;7.68;100.00;99990.09;5036360;28;20313;-70
2023/12/26 08:00:30;;;;;;;9.27;2.10;;;8.50;99.90;;;7.71;100.00;99989.78;5036338;28;20798;-70
2023/12/26 08:02:58;;;;;;;12.30;2.27;;;8.50;99.90;;;7.65;100.00;100005.44;5036561;28;20214;-70
2023/12/26 08:05:27;;;;;;;10.07;2.00;;;8.50;99.90;;;7.67;100.00;100004.44;5036402;28;20673;-70
2023/12/26 08:07:55;;;;;;;11.53;2.30;;;8.40;99.90;;;7.58;100.00;100009.72;5036561;28;20597;-70
2023/12/26 08:10:25;;;;;;;11.33;2.37;;;8.40;99.90;;;7.56;100.00;100019.72;5036514;28;20210;-70
2023/12/26 08:12:54;;;;;;;9.47;2.17;;;8.30;99.90;;;7.52;100.00;100010.34;5036449;28;20660;-70
2023/12/26 08:15:22;;;;;;;8.90;2.23;;;8.30;99.90;;;7.54;100.00;100018.19;5036403;28;20282;-70
2023/12/26 08:17:51;;;;;;;9.93;1.90;;;8.30;99.90;;;7.51;100.00;100027.31;5036351;28;20227;-70
2023/12/26 08:20:20;;;;;;;12.67;2.47;;;8.30;99.90;;;7.52;100.00;100022.84;5036358;28;20210;-70
2023/12/26 08:22:48;;;;;;;10.40;2.30;;;8.30;99.90;;;7.48;100.00;100032.97;5036268;28;20293;-70
2023/12/26 08:25:16;;;;;;;6.37;1.70;;;8.20;99.90;;;7.45;100.00;100033.28;5034974;28;20203;-70
2023/12/26 08:27:48;;;;;;;12.17;1.77;;;8.20;99.90;;;7.45;100.00;100038.63;5035907;28;20767;-70
2023/12/26 08:30:17;;;;;;;8.93;2.10;;;8.30;99.90;;;7.43;100.00;100035.25;5036099;28;20298;-70
2023/12/26 08:32:46;;;;;;;9.57;2.13;;;8.20;99.90;;;7.44;100.00;100042.25;5036156;28;20207;-70
2023/12/26 08:35:14;;;;;;;11.43;2.00;;;8.20;99.90;;;7.42;100.00;100046.94;5035981;28;20261;-70
2023/12/26 08:37:42;;;;;;;7.27;2.00;;;8.20;99.90;;;7.42;100.00;100054.91;5035828;28;20223;-70
2023/12/26 08:40:11;;;;;;;7.30;2.07;;;8.20;99.90;;;7.40;100.00;100062.22;5035940;28;20297;-70
2023/12/26 08:42:39;;;;;;;7.23;2.33;;;8.20;99.90;;;7.42;100.00;100065.56;5035973;28;20294;-70
2023/12/26 08:45:10;;;;;;;8.77;2.20;;;8.20;99.90;;;7.42;100.00;100062.91;5035858;28;20298;-70
2023/12/26 08:47:38;;;;;;;5.77;1.73;;;8.30;99.90;;;7.43;100.00;100071.72;5035753;28;20230;-70
2023/12/26 08:50:08;;;;;;;6.80;2.00;;;8.20;99.90;;;7.44;100.00;100076.88;5035589;28;20250;-70
2023/12/26 08:52:36;;;;;;;11.73;2.17;;;8.20;99.90;;;7.44;100.00;100076.03;5035780;28;20213;-70
2023/12/26 08:55:05;;;;;;;8.77;2.20;;;8.30;99.90;;;7.44;100.00;100090.19;5035369;28;20736;-70
2023/12/26 08:57:33;;;;;;;4.10;1.90;;;8.20;99.90;;;7.45;100.00;100085.72;5035656;28;20305;-70
2023/12/26 09:00:03;;;;;;;9.73;2.20;;;8.20;99.90;;;7.47;100.00;100097.03;5035553;28;20385;-70
2023/12/26 09:02:33;;;;;;;8.53;2.10;;;8.30;99.90;;;7.49;100.00;100095.91;5035522;28;20207;-70
2023/12/26 09:05:02;;;;;;;12.10;2.53;;;8.30;99.90;;;7.50;100.00;100099.41;5035193;28;20681;-70
2023/12/26 09:07:30;;;;;;;5.97;2.00;;;8.30;99.90;;;7.50;100.00;100099.41;5035299;28;20321;-70
2023/12/26 09:10:00;;;;;;;8.00;1.80;;;8.40;99.90;;;7.49;100.00;100103.06;5035260;28;20677;-70
2023/12/26 09:12:29;;;;;;;8.43;2.10;;;8.30;99.90;;;7.49;100.00;100109.22;5035284;28;20207;-70
2023/12/26 09:14:57;;;;;;;9.53;2.07;;;8.30;99.90;;;7.51;100.00;100109.91;5035203;28;20233;-70
2023/12/26 09:17:25;;;;;;;8.03;2.40;;;8.30;99.90;;;7.52;100.00;100118.72;5035197;28;20255;-70
2023/12/26 09:19:55;;;;;;;8.17;2.10;;;8.30;99.90;;;7.54;100.00;100128.22;5034922;28;20689;-70
2023/12/26 09:22:23;;;;;;;9.97;2.20;;;8.40;99.90;;;7.53;100.00;100126.53;5035253;28;20211;-70
2023/12/26 09:24:51;;;;;;;6.80;2.17;;;8.40;99.90;;;7.53;100.00;100129.22;5034796;28;20641;-70
2023/12/26 09:27:20;;;;;;;8.17;2.20;;;8.30;99.90;;;7.53;100.00;100131.88;5034933;28;20318;-70
2023/12/26 09:29:48;;;;;;;5.17;2.27;;;8.30;99.90;;;7.53;100.00;100129.22;5034749;28;20202;-70
2023/12/26 09:32:16;;;;;;;8.67;2.90;;;8.40;99.90;;;7.55;100.00;100135.22;5034787;28;20735;-70
2023/12/26 09:34:45;;;;;;;10.47;2.83;;;8.40;99.90;;;7.55;100.00;100143.22;5034936;28;20207;-70
2023/12/26 09:37:14;;;;;;;7.77;2.10;;;8.40;99.90;;;7.56;100.00;100157.38;5034393;28;20199;-71
2023/12/26 09:39:43;;;;;;;4.43;2.03;;;8.30;99.90;;;7.57;100.00;100165.19;5034816;28;20306;-70
2023/12/26 09:42:12;;;;;;;7.60;2.23;;;8.40;99.90;;;7.61;100.00;100161.25;5035408;28;20238;-70
2023/12/26 09:44:41;;;;;;;7.73;2.00;;;8.40;99.90;;;7.63;100.00;100148.63;5034705;28;20209;-70
2023/12/26 09:47:11;;;;;;;8.03;2.33;;;8.50;99.90;;;7.68;100.00;100157.94;5034281;28;20313;-70
2023/12/26 09:49:43;;;;;;;7.17;2.30;;;8.50;99.90;;;7.67;100.00;100153.63;5034495;28;20215;-70
2023/12/26 09:52:14;;;;;;;4.20;2.00;;;8.50;99.90;;;7.66;100.00;100163.44;5034712;28;20195;-70
2023/12/26 09:54:46;;;;;;;8.13;2.20;;;8.50;99.90;;;7.68;100.00;100171.28;5034583;28;20277;-71
2023/12/26 09:57:16;;;;;;;11.33;2.50;;;8.50;99.90;;;7.67;100.00;100177.63;5034195;28;20274;-70
2023/12/26 09:59:45;;;;;;;6.70;1.87;;;8.50;99.90;;;7.70;100.00;100171.97;5034417;28;20203;-70
2023/12/26 10:02:14;;;;;;;4.57;1.97;;;8.50;99.90;;;7.71;100.00;100176.28;5034012;28;20585;-70
2023/12/26 10:04:43;;;;;;;9.37;1.87;;;8.50;99.90;;;7.71;100.00;100186.94;5034540;28;20202;-70
2023/12/26 10:07:14;;;;;;;6.43;1.73;;;8.50;99.90;;;7.72;100.00;100180.63;5033862;28;20643;-70
2023/12/26 10:09:44;;;;;;;6.57;2.17;;;8.50;99.90;;;7.72;100.00;100183.28;5034303;28;20199;-71
2023/12/26 10:12:12;;;;;;;5.17;1.90;;;8.50;99.90;;;7.75;100.00;100190.97;5035083;28;20222;-70
2023/12/26 10:14:41;;;;;;;4.50;1.70;;;8.60;99.90;;;7.74;100.00;100202.66;5034450;28;20213;-70
2023/12/26 10:17:12;;;;;;;7.13;2.00;;;8.60;99.90;;;7.74;100.00;100207.97;5034022;28;20260;-70
2023/12/26 10:19:40;;;;;;;10.90;2.10;;;8.60;99.90;;;7.76;100.00;100201.50;5033736;28;20653;-70
2023/12/26 10:22:09;;;;;;;9.27;2.77;;;8.60;99.90;;;7.81;100.00;100198.38;5033650;28;20680;-71
2023/12/26 10:24:37;;;;;;;7.77;1.90;;;8.60;99.90;;;7.81;100.00;100209.03;5034261;28;20302;-71
2023/12/26 10:27:07;;;;;;;7.70;2.20;;;8.80;99.90;;;7.84;100.00;100209.53;5033865;28;20269;-71
2023/12/26 10:29:35;;;;;;;8.53;2.43;;;8.70;99.90;;;7.83;100.00;100213.22;5033891;28;20297;-71